sensor_id;sensor_type;location;lat;lon;timestamp;temperature;humidity
63966;DHT22;50151;52.030;5.350;2023-06-22T00:01:20;19.90;99.90
63966;DHT22;50151;52.030;5.350;2023-06-22T00:03:48;19.90;99.90
63966;DHT22;50151;52.030;5.350;2023-06-22T00:06:15;19.90;99.90
63966;DHT22;50151;52.030;5.350;2023-06-22T00:08:41;19.80;99.90
63966;DHT22;50151;52.030;5.350;2023-06-22T00:11:08;19.80;99.90
63966;DHT22;50151;52.030;5.350;2023-06-22T00:13:35;19.80;99.90
63966;DHT22;50151;52.030;5.350;2023-06-22T00:16:02;19.70;99.90
63966;DHT22;50151;52.030;5.350;2023-06-22T00:18:29;19.80;99.90
63966;DHT22;50151;52.030;5.350;2023-06-22T00:20:57;19.70;99.90
63966;DHT22;50151;52.030;5.350;2023-06-22T00:23:24;19.70;99.90
63966;DHT22;50151;52.030;5.350;2023-06-22T00:25:52;19.70;99.90
63966;DHT22;50151;52.030;5.350;2023-06-22T00:28:19;19.70;99.90
63966;DHT22;50151;52.030;5.350;2023-06-22T00:30:46;19.70;99.90
63966;DHT22;50151;52.030;5.350;2023-06-22T00:33:13;19.70;99.90
63966;DHT22;50151;52.030;5.350;2023-06-22T00:35:39;19.70;99.90
63966;DHT22;50151;52.030;5.350;2023-06-22T00:38:08;19.60;99.90
63966;DHT22;50151;52.030;5.350;2023-06-22T00:40:35;19.60;99.90
63966;DHT22;50151;52.030;5.350;2023-06-22T00:43:02;19.50;99.90
63966;DHT22;50151;52.030;5.350;2023-06-22T00:45:29;19.50;99.90
63966;DHT22;50151;52.030;5.350;2023-06-22T00:47:57;19.50;99.90
63966;DHT22;50151;52.030;5.350;2023-06-22T00:50:27;19.50;99.90
63966;DHT22;50151;52.030;5.350;2023-06-22T00:52:57;19.50;99.90
63966;DHT22;50151;52.030;5.350;2023-06-22T00:55:25;19.50;99.90
63966;DHT22;50151;52.030;5.350;2023-06-22T00:57:55;19.30;99.90
63966;DHT22;50151;52.030;5.350;2023-06-22T01:00:25;19.40;99.90
63966;DHT22;50151;52.030;5.350;2023-06-22T01:02:53;19.30;99.90
63966;DHT22;50151;52.030;5.350;2023-06-22T01:05:21;19.30;99.90
63966;DHT22;50151;52.030;5.350;2023-06-22T01:10:50;19.20;99.90
63966;DHT22;50151;52.030;5.350;2023-06-22T01:15:54;19.20;99.90
63966;DHT22;50151;52.030;5.350;2023-06-22T01:18:23;19.20;99.90
63966;DHT22;50151;52.030;5.350;2023-06-22T01:20:54;19.20;99.90
63966;DHT22;50151;52.030;5.350;2023-06-22T01:29:29;19.00;99.90
63966;DHT22;50151;52.030;5.350;2023-06-22T01:31:57;19.00;99.90
63966;DHT22;50151;52.030;5.350;2023-06-22T01:34:25;19.00;99.90
63966;DHT22;50151;52.030;5.350;2023-06-22T01:36:53;19.00;99.90
63966;DHT22;50151;52.030;5.350;2023-06-22T01:39:21;19.00;99.90
63966;DHT22;50151;52.030;5.350;2023-06-22T01:41:48;19.00;99.90
63966;DHT22;50151;52.030;5.350;2023-06-22T01:44:16;18.90;99.90
63966;DHT22;50151;52.030;5.350;2023-06-22T01:46:43;18.80;99.90
63966;DHT22;50151;52.030;5.350;2023-06-22T01:49:10;18.80;99.90
63966;DHT22;50151;52.030;5.350;2023-06-22T01:51:37;18.80;99.90
63966;DHT22;50151;52.030;5.350;2023-06-22T01:54:06;18.80;99.90
63966;DHT22;50151;52.030;5.350;2023-06-22T01:56:32;18.80;99.90
63966;DHT22;50151;52.030;5.350;2023-06-22T01:59:09;18.80;99.90
63966;DHT22;50151;52.030;5.350;2023-06-22T02:01:50;18.80;99.90
63966;DHT22;50151;52.030;5.350;2023-06-22T02:04:24;18.80;99.90
63966;DHT22;50151;52.030;5.350;2023-06-22T02:06:54;18.80;99.90
63966;DHT22;50151;52.030;5.350;2023-06-22T02:09:24;18.80;99.90
63966;DHT22;50151;52.030;5.350;2023-06-22T02:11:54;18.70;99.90
63966;DHT22;50151;52.030;5.350;2023-06-22T02:14:23;18.70;99.90
63966;DHT22;50151;52.030;5.350;2023-06-22T02:16:53;18.70;99.90
63966;DHT22;50151;52.030;5.350;2023-06-22T02:19:24;18.60;99.90
63966;DHT22;50151;52.030;5.350;2023-06-22T02:21:51;18.60;99.90
63966;DHT22;50151;52.030;5.350;2023-06-22T02:24:18;18.60;99.90
63966;DHT22;50151;52.030;5.350;2023-06-22T02:26:44;18.50;99.90
63966;DHT22;50151;52.030;5.350;2023-06-22T02:29:12;18.50;99.90
63966;DHT22;50151;52.030;5.350;2023-06-22T02:31:39;18.50;99.90
63966;DHT22;50151;52.030;5.350;2023-06-22T02:34:06;18.40;99.90
63966;DHT22;50151;52.030;5.350;2023-06-22T02:36:33;18.40;99.90
63966;DHT22;50151;52.030;5.350;2023-06-22T02:39:00;18.40;99.90
63966;DHT22;50151;52.030;5.350;2023-06-22T02:41:28;18.40;99.90
63966;DHT22;50151;52.030;5.350;2023-06-22T02:43:54;18.40;99.90
63966;DHT22;50151;52.030;5.350;2023-06-22T02:46:21;18.40;99.90
63966;DHT22;50151;52.030;5.350;2023-06-22T02:48:48;18.30;99.90
63966;DHT22;50151;52.030;5.350;2023-06-22T02:51:15;18.30;99.90
63966;DHT22;50151;52.030;5.350;2023-06-22T02:53:42;18.30;99.90
63966;DHT22;50151;52.030;5.350;2023-06-22T02:56:11;18.20;99.90
63966;DHT22;50151;52.030;5.350;2023-06-22T02:58:39;18.20;99.90
63966;DHT22;50151;52.030;5.350;2023-06-22T03:01:06;18.20;99.90
63966;DHT22;50151;52.030;5.350;2023-06-22T03:03:33;18.10;99.90
63966;DHT22;50151;52.030;5.350;2023-06-22T03:06:00;18.10;99.90
63966;DHT22;50151;52.030;5.350;2023-06-22T03:08:30;18.00;99.90
63966;DHT22;50151;52.030;5.350;2023-06-22T03:10:56;18.00;99.90
63966;DHT22;50151;52.030;5.350;2023-06-22T03:13:23;18.10;99.90
63966;DHT22;50151;52.030;5.350;2023-06-22T03:15:50;18.00;99.90
63966;DHT22;50151;52.030;5.350;2023-06-22T03:18:17;18.00;99.90
63966;DHT22;50151;52.030;5.350;2023-06-22T03:20:44;18.00;99.90
63966;DHT22;50151;52.030;5.350;2023-06-22T03:23:10;17.90;99.90
63966;DHT22;50151;52.030;5.350;2023-06-22T03:25:37;17.80;99.90
63966;DHT22;50151;52.030;5.350;2023-06-22T03:28:04;17.90;99.90
63966;DHT22;50151;52.030;5.350;2023-06-22T03:30:30;17.80;99.90
63966;DHT22;50151;52.030;5.350;2023-06-22T03:32:57;17.80;99.90
63966;DHT22;50151;52.030;5.350;2023-06-22T03:35:24;17.80;99.90
63966;DHT22;50151;52.030;5.350;2023-06-22T03:37:51;17.80;99.90
63966;DHT22;50151;52.030;5.350;2023-06-22T03:40:18;17.80;99.90
63966;DHT22;50151;52.030;5.350;2023-06-22T03:42:45;17.80;99.90
63966;DHT22;50151;52.030;5.350;2023-06-22T03:45:12;17.80;99.90
63966;DHT22;50151;52.030;5.350;2023-06-22T03:47:39;17.80;99.90
63966;DHT22;50151;52.030;5.350;2023-06-22T03:50:06;17.80;99.90
63966;DHT22;50151;52.030;5.350;2023-06-22T03:52:33;17.80;99.90
63966;DHT22;50151;52.030;5.350;2023-06-22T03:55:00;17.80;99.90
63966;DHT22;50151;52.030;5.350;2023-06-22T03:57:26;17.70;99.90
63966;DHT22;50151;52.030;5.350;2023-06-22T03:59:56;17.70;99.90
63966;DHT22;50151;52.030;5.350;2023-06-22T04:02:22;17.70;99.90
63966;DHT22;50151;52.030;5.350;2023-06-22T04:04:49;17.80;99.90
63966;DHT22;50151;52.030;5.350;2023-06-22T04:07:16;17.70;99.90
63966;DHT22;50151;52.030;5.350;2023-06-22T04:09:44;17.80;99.90
63966;DHT22;50151;52.030;5.350;2023-06-22T04:12:11;17.80;99.90
63966;DHT22;50151;52.030;5.350;2023-06-22T04:14:37;17.70;99.90
63966;DHT22;50151;52.030;5.350;2023-06-22T04:17:04;17.80;99.90
63966;DHT22;50151;52.030;5.350;2023-06-22T04:19:31;17.80;99.90
63966;DHT22;50151;52.030;5.350;2023-06-22T04:21:58;17.80;99.90
63966;DHT22;50151;52.030;5.350;2023-06-22T04:24:24;17.80;99.90
63966;DHT22;50151;52.030;5.350;2023-06-22T04:26:51;17.90;99.90
63966;DHT22;50151;52.030;5.350;2023-06-22T04:29:21;17.80;99.90
63966;DHT22;50151;52.030;5.350;2023-06-22T04:31:57;17.90;99.90
63966;DHT22;50151;52.030;5.350;2023-06-22T04:34:32;18.00;99.90
63966;DHT22;50151;52.030;5.350;2023-06-22T04:36:59;18.00;99.90
63966;DHT22;50151;52.030;5.350;2023-06-22T04:39:26;17.90;99.90
63966;DHT22;50151;52.030;5.350;2023-06-22T04:41:53;18.10;99.90
63966;DHT22;50151;52.030;5.350;2023-06-22T04:44:21;18.10;99.90
63966;DHT22;50151;52.030;5.350;2023-06-22T04:47:01;18.10;99.90
63966;DHT22;50151;52.030;5.350;2023-06-22T04:49:30;18.10;99.90
63966;DHT22;50151;52.030;5.350;2023-06-22T04:52:04;18.20;99.90
63966;DHT22;50151;52.030;5.350;2023-06-22T04:54:31;18.20;99.90
63966;DHT22;50151;52.030;5.350;2023-06-22T04:57:01;18.30;99.90
63966;DHT22;50151;52.030;5.350;2023-06-22T04:59:29;18.30;99.90
63966;DHT22;50151;52.030;5.350;2023-06-22T05:01:57;18.40;99.90
63966;DHT22;50151;52.030;5.350;2023-06-22T05:04:25;18.40;99.90
63966;DHT22;50151;52.030;5.350;2023-06-22T05:06:54;18.40;99.90
63966;DHT22;50151;52.030;5.350;2023-06-22T05:09:21;18.50;99.90
63966;DHT22;50151;52.030;5.350;2023-06-22T05:11:48;18.50;99.90
63966;DHT22;50151;52.030;5.350;2023-06-22T05:14:15;18.50;99.90
63966;DHT22;50151;52.030;5.350;2023-06-22T05:16:42;18.50;99.90
63966;DHT22;50151;52.030;5.350;2023-06-22T05:19:09;18.60;99.90
63966;DHT22;50151;52.030;5.350;2023-06-22T05:21:36;18.60;99.90
63966;DHT22;50151;52.030;5.350;2023-06-22T05:24:03;18.60;99.90
63966;DHT22;50151;52.030;5.350;2023-06-22T05:26:32;18.70;99.90
63966;DHT22;50151;52.030;5.350;2023-06-22T05:29:00;18.70;99.90
63966;DHT22;50151;52.030;5.350;2023-06-22T05:31:27;18.80;99.90
63966;DHT22;50151;52.030;5.350;2023-06-22T05:33:55;18.80;99.90
63966;DHT22;50151;52.030;5.350;2023-06-22T05:36:22;18.90;99.90
63966;DHT22;50151;52.030;5.350;2023-06-22T05:38:52;19.00;99.90
63966;DHT22;50151;52.030;5.350;2023-06-22T05:41:19;19.00;99.90
63966;DHT22;50151;52.030;5.350;2023-06-22T05:43:46;19.10;99.90
63966;DHT22;50151;52.030;5.350;2023-06-22T05:46:13;19.20;99.90
63966;DHT22;50151;52.030;5.350;2023-06-22T05:48:40;19.30;99.90
63966;DHT22;50151;52.030;5.350;2023-06-22T05:51:07;19.40;99.90
63966;DHT22;50151;52.030;5.350;2023-06-22T05:53:33;19.60;99.90
63966;DHT22;50151;52.030;5.350;2023-06-22T05:56:00;19.70;99.90
63966;DHT22;50151;52.030;5.350;2023-06-22T05:58:27;19.80;99.90
63966;DHT22;50151;52.030;5.350;2023-06-22T06:00:54;20.00;99.90
63966;DHT22;50151;52.030;5.350;2023-06-22T06:03:21;19.90;99.90
63966;DHT22;50151;52.030;5.350;2023-06-22T06:05:47;19.90;99.90
63966;DHT22;50151;52.030;5.350;2023-06-22T06:08:14;20.00;99.90
63966;DHT22;50151;52.030;5.350;2023-06-22T06:10:41;20.00;99.90
63966;DHT22;50151;52.030;5.350;2023-06-22T06:13:08;20.20;99.90
63966;DHT22;50151;52.030;5.350;2023-06-22T06:15:35;20.30;99.90
63966;DHT22;50151;52.030;5.350;2023-06-22T06:18:01;20.40;99.90
63966;DHT22;50151;52.030;5.350;2023-06-22T06:20:32;20.50;99.90
63966;DHT22;50151;52.030;5.350;2023-06-22T06:22:59;20.50;99.90
63966;DHT22;50151;52.030;5.350;2023-06-22T06:25:26;20.50;99.90
63966;DHT22;50151;52.030;5.350;2023-06-22T06:27:53;20.60;99.90
63966;DHT22;50151;52.030;5.350;2023-06-22T06:30:21;20.70;99.90
63966;DHT22;50151;52.030;5.350;2023-06-22T06:32:49;20.80;99.90
63966;DHT22;50151;52.030;5.350;2023-06-22T06:35:16;20.90;99.90
63966;DHT22;50151;52.030;5.350;2023-06-22T06:37:45;21.00;99.90
63966;DHT22;50151;52.030;5.350;2023-06-22T06:40:13;21.00;99.90
63966;DHT22;50151;52.030;5.350;2023-06-22T06:42:44;21.10;99.90
63966;DHT22;50151;52.030;5.350;2023-06-22T06:45:15;21.00;99.90
63966;DHT22;50151;52.030;5.350;2023-06-22T06:47:43;21.20;99.90
63966;DHT22;50151;52.030;5.350;2023-06-22T06:50:10;21.30;99.90
63966;DHT22;50151;52.030;5.350;2023-06-22T06:52:37;21.20;99.90
63966;DHT22;50151;52.030;5.350;2023-06-22T06:55:05;21.20;99.90
63966;DHT22;50151;52.030;5.350;2023-06-22T06:57:36;21.30;99.90
63966;DHT22;50151;52.030;5.350;2023-06-22T07:00:08;21.40;99.90
63966;DHT22;50151;52.030;5.350;2023-06-22T07:02:42;21.50;99.90
63966;DHT22;50151;52.030;5.350;2023-06-22T07:05:10;21.70;99.90
63966;DHT22;50151;52.030;5.350;2023-06-22T07:07:38;21.70;99.90
63966;DHT22;50151;52.030;5.350;2023-06-22T07:10:06;21.80;99.90
63966;DHT22;50151;52.030;5.350;2023-06-22T07:12:33;21.90;99.90
63966;DHT22;50151;52.030;5.350;2023-06-22T07:15:06;21.90;99.90
63966;DHT22;50151;52.030;5.350;2023-06-22T07:17:36;21.90;99.90
63966;DHT22;50151;52.030;5.350;2023-06-22T07:20:04;22.00;99.90
63966;DHT22;50151;52.030;5.350;2023-06-22T07:22:41;22.10;99.90
63966;DHT22;50151;52.030;5.350;2023-06-22T07:25:08;22.10;99.90
63966;DHT22;50151;52.030;5.350;2023-06-22T07:27:43;22.20;99.90
63966;DHT22;50151;52.030;5.350;2023-06-22T07:30:12;22.20;99.90
63966;DHT22;50151;52.030;5.350;2023-06-22T07:32:40;22.20;99.90
63966;DHT22;50151;52.030;5.350;2023-06-22T07:35:07;22.30;99.90
63966;DHT22;50151;52.030;5.350;2023-06-22T07:37:34;22.40;99.90
63966;DHT22;50151;52.030;5.350;2023-06-22T07:40:02;22.40;99.90
63966;DHT22;50151;52.030;5.350;2023-06-22T07:42:32;22.50;99.90
63966;DHT22;50151;52.030;5.350;2023-06-22T07:45:00;22.40;99.90
63966;DHT22;50151;52.030;5.350;2023-06-22T07:47:27;22.50;99.90
63966;DHT22;50151;52.030;5.350;2023-06-22T07:49:55;22.70;99.90
63966;DHT22;50151;52.030;5.350;2023-06-22T07:52:24;22.90;99.90
63966;DHT22;50151;52.030;5.350;2023-06-22T07:54:52;23.00;99.90
63966;DHT22;50151;52.030;5.350;2023-06-22T07:57:19;23.10;99.90
63966;DHT22;50151;52.030;5.350;2023-06-22T07:59:48;23.00;99.90
63966;DHT22;50151;52.030;5.350;2023-06-22T08:02:14;23.00;99.90
63966;DHT22;50151;52.030;5.350;2023-06-22T08:04:42;23.10;99.90
63966;DHT22;50151;52.030;5.350;2023-06-22T08:07:08;23.30;99.90
63966;DHT22;50151;52.030;5.350;2023-06-22T08:09:36;23.40;99.90
63966;DHT22;50151;52.030;5.350;2023-06-22T08:12:03;23.40;99.90
63966;DHT22;50151;52.030;5.350;2023-06-22T08:14:31;23.50;99.90
63966;DHT22;50151;52.030;5.350;2023-06-22T08:16:57;23.50;99.90
63966;DHT22;50151;52.030;5.350;2023-06-22T08:19:24;23.80;99.90
63966;DHT22;50151;52.030;5.350;2023-06-22T08:21:51;23.90;99.90
63966;DHT22;50151;52.030;5.350;2023-06-22T08:24:18;23.80;99.90
63966;DHT22;50151;52.030;5.350;2023-06-22T08:26:44;23.80;99.90
63966;DHT22;50151;52.030;5.350;2023-06-22T08:29:11;24.00;99.90
63966;DHT22;50151;52.030;5.350;2023-06-22T08:31:38;24.20;99.90
63966;DHT22;50151;52.030;5.350;2023-06-22T08:34:05;24.30;99.90
63966;DHT22;50151;52.030;5.350;2023-06-22T08:36:32;24.40;99.90
63966;DHT22;50151;52.030;5.350;2023-06-22T08:39:01;24.30;99.90
63966;DHT22;50151;52.030;5.350;2023-06-22T08:41:29;24.40;99.90
63966;DHT22;50151;52.030;5.350;2023-06-22T08:43:56;24.50;99.90
63966;DHT22;50151;52.030;5.350;2023-06-22T08:46:23;24.40;99.90
63966;DHT22;50151;52.030;5.350;2023-06-22T08:48:57;24.30;99.90
63966;DHT22;50151;52.030;5.350;2023-06-22T08:51:24;24.30;99.90
63966;DHT22;50151;52.030;5.350;2023-06-22T08:53:51;24.40;99.90
63966;DHT22;50151;52.030;5.350;2023-06-22T08:56:17;24.40;99.90
63966;DHT22;50151;52.030;5.350;2023-06-22T08:58:45;24.40;99.90
63966;DHT22;50151;52.030;5.350;2023-06-22T09:01:12;24.60;99.90
63966;DHT22;50151;52.030;5.350;2023-06-22T09:03:38;24.60;99.90
63966;DHT22;50151;52.030;5.350;2023-06-22T09:06:05;24.60;99.90
63966;DHT22;50151;52.030;5.350;2023-06-22T09:08:32;24.70;99.90
63966;DHT22;50151;52.030;5.350;2023-06-22T09:10:59;24.70;99.90
63966;DHT22;50151;52.030;5.350;2023-06-22T09:13:26;24.90;99.90
63966;DHT22;50151;52.030;5.350;2023-06-22T09:15:53;24.90;99.90
63966;DHT22;50151;52.030;5.350;2023-06-22T09:18:19;24.90;99.90
63966;DHT22;50151;52.030;5.350;2023-06-22T09:20:46;25.00;99.90
63966;DHT22;50151;52.030;5.350;2023-06-22T09:23:12;25.10;99.90
63966;DHT22;50151;52.030;5.350;2023-06-22T09:25:39;25.20;99.90
63966;DHT22;50151;52.030;5.350;2023-06-22T09:28:07;25.10;99.90
63966;DHT22;50151;52.030;5.350;2023-06-22T09:30:33;25.20;99.90
63966;DHT22;50151;52.030;5.350;2023-06-22T09:33:00;25.20;99.90
63966;DHT22;50151;52.030;5.350;2023-06-22T09:35:27;25.30;99.90
63966;DHT22;50151;52.030;5.350;2023-06-22T09:37:54;25.30;99.90
63966;DHT22;50151;52.030;5.350;2023-06-22T09:40:22;25.30;99.90
63966;DHT22;50151;52.030;5.350;2023-06-22T09:42:48;25.20;99.90
63966;DHT22;50151;52.030;5.350;2023-06-22T09:45:15;25.40;99.90
63966;DHT22;50151;52.030;5.350;2023-06-22T09:47:42;25.30;99.90
63966;DHT22;50151;52.030;5.350;2023-06-22T09:50:09;25.30;99.90
63966;DHT22;50151;52.030;5.350;2023-06-22T09:52:36;25.40;99.90
63966;DHT22;50151;52.030;5.350;2023-06-22T09:55:06;25.40;99.90
63966;DHT22;50151;52.030;5.350;2023-06-22T09:57:33;25.40;99.90
63966;DHT22;50151;52.030;5.350;2023-06-22T10:00:00;25.40;99.90
63966;DHT22;50151;52.030;5.350;2023-06-22T10:02:27;25.30;99.90
63966;DHT22;50151;52.030;5.350;2023-06-22T10:04:54;25.20;99.90
63966;DHT22;50151;52.030;5.350;2023-06-22T10:07:21;25.20;99.90
63966;DHT22;50151;52.030;5.350;2023-06-22T10:09:48;25.30;99.90
63966;DHT22;50151;52.030;5.350;2023-06-22T10:12:16;25.20;99.90
63966;DHT22;50151;52.030;5.350;2023-06-22T10:14:43;25.20;99.90
63966;DHT22;50151;52.030;5.350;2023-06-22T10:17:10;25.20;99.90
63966;DHT22;50151;52.030;5.350;2023-06-22T10:19:36;25.10;99.90
63966;DHT22;50151;52.030;5.350;2023-06-22T10:22:05;25.10;99.90
63966;DHT22;50151;52.030;5.350;2023-06-22T10:24:31;25.10;99.90
63966;DHT22;50151;52.030;5.350;2023-06-22T10:26:58;25.10;99.90
63966;DHT22;50151;52.030;5.350;2023-06-22T10:29:25;25.10;99.90
63966;DHT22;50151;52.030;5.350;2023-06-22T10:31:52;25.10;99.90
63966;DHT22;50151;52.030;5.350;2023-06-22T10:34:18;25.10;99.90
63966;DHT22;50151;52.030;5.350;2023-06-22T10:36:45;25.10;99.90
63966;DHT22;50151;52.030;5.350;2023-06-22T10:39:15;25.10;99.90
63966;DHT22;50151;52.030;5.350;2023-06-22T10:41:42;24.90;99.90
63966;DHT22;50151;52.030;5.350;2023-06-22T10:44:08;25.10;99.90
63966;DHT22;50151;52.030;5.350;2023-06-22T10:46:35;25.10;99.90
63966;DHT22;50151;52.030;5.350;2023-06-22T10:49:02;25.20;99.90
63966;DHT22;50151;52.030;5.350;2023-06-22T10:51:28;25.20;99.90
63966;DHT22;50151;52.030;5.350;2023-06-22T10:53:55;25.20;99.90
63966;DHT22;50151;52.030;5.350;2023-06-22T10:56:22;25.20;99.90
63966;DHT22;50151;52.030;5.350;2023-06-22T10:58:49;25.20;99.90
63966;DHT22;50151;52.030;5.350;2023-06-22T11:01:16;25.20;99.90
63966;DHT22;50151;52.030;5.350;2023-06-22T11:04:01;25.20;99.90
63966;DHT22;50151;52.030;5.350;2023-06-22T11:06:28;25.20;99.90
63966;DHT22;50151;52.030;5.350;2023-06-22T11:08:55;25.30;99.90
63966;DHT22;50151;52.030;5.350;2023-06-22T11:11:38;25.30;99.90
63966;DHT22;50151;52.030;5.350;2023-06-22T11:14:04;25.30;99.90
63966;DHT22;50151;52.030;5.350;2023-06-22T11:16:32;25.40;99.90
63966;DHT22;50151;52.030;5.350;2023-06-22T11:18:58;25.40;99.90
63966;DHT22;50151;52.030;5.350;2023-06-22T11:21:25;25.40;99.90
63966;DHT22;50151;52.030;5.350;2023-06-22T11:23:53;25.40;99.90
63966;DHT22;50151;52.030;5.350;2023-06-22T11:26:19;25.40;99.90
63966;DHT22;50151;52.030;5.350;2023-06-22T11:28:47;25.40;99.90
63966;DHT22;50151;52.030;5.350;2023-06-22T11:31:14;25.60;99.90
63966;DHT22;50151;52.030;5.350;2023-06-22T11:33:52;25.60;99.90
63966;DHT22;50151;52.030;5.350;2023-06-22T11:36:19;25.60;99.90
63966;DHT22;50151;52.030;5.350;2023-06-22T11:38:45;25.60;99.90
63966;DHT22;50151;52.030;5.350;2023-06-22T11:41:12;25.60;99.90
63966;DHT22;50151;52.030;5.350;2023-06-22T11:43:39;25.60;99.90
63966;DHT22;50151;52.030;5.350;2023-06-22T11:46:06;25.50;99.90
63966;DHT22;50151;52.030;5.350;2023-06-22T11:48:32;25.60;99.90
63966;DHT22;50151;52.030;5.350;2023-06-22T11:50:59;25.60;99.90
63966;DHT22;50151;52.030;5.350;2023-06-22T11:53:27;25.60;99.90
63966;DHT22;50151;52.030;5.350;2023-06-22T11:55:53;25.40;99.90
63966;DHT22;50151;52.030;5.350;2023-06-22T11:58:22;25.50;99.90
63966;DHT22;50151;52.030;5.350;2023-06-22T12:00:50;25.50;99.90
63966;DHT22;50151;52.030;5.350;2023-06-22T12:03:19;25.40;99.90
63966;DHT22;50151;52.030;5.350;2023-06-22T12:05:50;25.40;99.90
63966;DHT22;50151;52.030;5.350;2023-06-22T12:08:17;25.40;99.90
63966;DHT22;50151;52.030;5.350;2023-06-22T12:10:45;25.40;99.90
63966;DHT22;50151;52.030;5.350;2023-06-22T12:13:11;25.30;99.90
63966;DHT22;50151;52.030;5.350;2023-06-22T12:15:41;25.30;99.90
63966;DHT22;50151;52.030;5.350;2023-06-22T12:18:08;25.40;99.90
63966;DHT22;50151;52.030;5.350;2023-06-22T12:20:38;25.40;99.90
63966;DHT22;50151;52.030;5.350;2023-06-22T12:23:05;25.20;99.90
63966;DHT22;50151;52.030;5.350;2023-06-22T12:25:31;25.10;99.90
63966;DHT22;50151;52.030;5.350;2023-06-22T12:27:58;24.90;99.90
63966;DHT22;50151;52.030;5.350;2023-06-22T12:30:25;24.80;99.90
63966;DHT22;50151;52.030;5.350;2023-06-22T12:32:52;24.80;99.90
63966;DHT22;50151;52.030;5.350;2023-06-22T12:35:21;24.70;99.90
63966;DHT22;50151;52.030;5.350;2023-06-22T12:37:48;24.70;99.90
63966;DHT22;50151;52.030;5.350;2023-06-22T12:40:15;24.60;99.90
63966;DHT22;50151;52.030;5.350;2023-06-22T12:42:45;24.40;99.90
63966;DHT22;50151;52.030;5.350;2023-06-22T12:45:12;24.30;99.90
63966;DHT22;50151;52.030;5.350;2023-06-22T12:47:40;24.30;99.90
63966;DHT22;50151;52.030;5.350;2023-06-22T12:50:07;24.30;99.90
63966;DHT22;50151;52.030;5.350;2023-06-22T12:52:36;24.30;99.90
63966;DHT22;50151;52.030;5.350;2023-06-22T12:55:06;24.30;99.90
63966;DHT22;50151;52.030;5.350;2023-06-22T12:57:33;24.30;99.90
63966;DHT22;50151;52.030;5.350;2023-06-22T13:00:00;24.20;99.90
63966;DHT22;50151;52.030;5.350;2023-06-22T13:02:27;24.10;99.90
63966;DHT22;50151;52.030;5.350;2023-06-22T13:04:55;24.10;99.90
63966;DHT22;50151;52.030;5.350;2023-06-22T13:07:22;24.00;99.90
63966;DHT22;50151;52.030;5.350;2023-06-22T13:09:50;23.90;99.90
63966;DHT22;50151;52.030;5.350;2023-06-22T13:12:23;23.80;99.90
63966;DHT22;50151;52.030;5.350;2023-06-22T13:14:49;23.60;99.90
63966;DHT22;50151;52.030;5.350;2023-06-22T13:17:16;23.40;99.90
63966;DHT22;50151;52.030;5.350;2023-06-22T13:19:43;23.30;99.90
63966;DHT22;50151;52.030;5.350;2023-06-22T13:22:33;23.20;99.90
63966;DHT22;50151;52.030;5.350;2023-06-22T13:25:00;23.30;99.90
63966;DHT22;50151;52.030;5.350;2023-06-22T13:27:27;23.30;99.90
63966;DHT22;50151;52.030;5.350;2023-06-22T13:29:54;23.20;99.90
63966;DHT22;50151;52.030;5.350;2023-06-22T13:32:21;23.10;99.90
63966;DHT22;50151;52.030;5.350;2023-06-22T13:34:47;23.10;99.90
63966;DHT22;50151;52.030;5.350;2023-06-22T13:37:14;23.10;99.90
63966;DHT22;50151;52.030;5.350;2023-06-22T13:39:41;23.10;99.90
63966;DHT22;50151;52.030;5.350;2023-06-22T13:42:08;23.00;99.90
63966;DHT22;50151;52.030;5.350;2023-06-22T13:44:35;22.90;99.90
63966;DHT22;50151;52.030;5.350;2023-06-22T13:47:02;23.00;99.90
63966;DHT22;50151;52.030;5.350;2023-06-22T13:49:28;23.00;99.90
63966;DHT22;50151;52.030;5.350;2023-06-22T13:51:55;23.00;99.90
63966;DHT22;50151;52.030;5.350;2023-06-22T13:54:22;23.10;99.90
63966;DHT22;50151;52.030;5.350;2023-06-22T13:56:51;23.20;99.90
63966;DHT22;50151;52.030;5.350;2023-06-22T13:59:18;23.20;99.90
63966;DHT22;50151;52.030;5.350;2023-06-22T14:01:46;23.20;99.90
63966;DHT22;50151;52.030;5.350;2023-06-22T14:04:13;23.20;99.90
63966;DHT22;50151;52.030;5.350;2023-06-22T14:06:39;23.10;99.90
63966;DHT22;50151;52.030;5.350;2023-06-22T14:09:06;23.10;99.90
63966;DHT22;50151;52.030;5.350;2023-06-22T14:11:33;23.20;99.90
63966;DHT22;50151;52.030;5.350;2023-06-22T14:14:00;23.10;99.90
63966;DHT22;50151;52.030;5.350;2023-06-22T14:16:27;23.20;99.90
63966;DHT22;50151;52.030;5.350;2023-06-22T14:18:53;23.30;99.90
63966;DHT22;50151;52.030;5.350;2023-06-22T14:21:24;23.10;99.90
63966;DHT22;50151;52.030;5.350;2023-06-22T14:23:50;23.10;99.90
63966;DHT22;50151;52.030;5.350;2023-06-22T14:26:17;23.10;99.90
63966;DHT22;50151;52.030;5.350;2023-06-22T14:28:45;23.10;99.90
63966;DHT22;50151;52.030;5.350;2023-06-22T14:31:18;23.10;99.90
63966;DHT22;50151;52.030;5.350;2023-06-22T14:33:47;23.10;99.90
63966;DHT22;50151;52.030;5.350;2023-06-22T14:36:15;23.10;99.90
63966;DHT22;50151;52.030;5.350;2023-06-22T14:38:42;23.20;99.90
63966;DHT22;50151;52.030;5.350;2023-06-22T14:41:09;23.10;99.90
63966;DHT22;50151;52.030;5.350;2023-06-22T14:43:47;23.10;99.90
63966;DHT22;50151;52.030;5.350;2023-06-22T14:46:15;23.10;99.90
63966;DHT22;50151;52.030;5.350;2023-06-22T14:48:42;23.10;99.90
63966;DHT22;50151;52.030;5.350;2023-06-22T14:51:10;23.00;99.90
63966;DHT22;50151;52.030;5.350;2023-06-22T14:53:41;23.00;99.90
63966;DHT22;50151;52.030;5.350;2023-06-22T14:56:08;23.10;99.90
63966;DHT22;50151;52.030;5.350;2023-06-22T14:58:35;23.10;99.90
63966;DHT22;50151;52.030;5.350;2023-06-22T15:01:04;23.00;99.90
63966;DHT22;50151;52.030;5.350;2023-06-22T15:03:31;23.00;99.90
63966;DHT22;50151;52.030;5.350;2023-06-22T15:05:59;22.90;99.90
63966;DHT22;50151;52.030;5.350;2023-06-22T15:08:26;22.90;99.90
63966;DHT22;50151;52.030;5.350;2023-06-22T15:10:54;22.80;99.90
63966;DHT22;50151;52.030;5.350;2023-06-22T15:13:21;22.80;99.90
63966;DHT22;50151;52.030;5.350;2023-06-22T15:15:49;22.60;99.90
63966;DHT22;50151;52.030;5.350;2023-06-22T15:18:16;22.60;99.90
63966;DHT22;50151;52.030;5.350;2023-06-22T15:20:43;22.40;99.90
63966;DHT22;50151;52.030;5.350;2023-06-22T15:23:12;22.20;99.90
63966;DHT22;50151;52.030;5.350;2023-06-22T15:25:39;22.30;99.90
63966;DHT22;50151;52.030;5.350;2023-06-22T15:28:06;22.20;99.90
63966;DHT22;50151;52.030;5.350;2023-06-22T15:30:33;22.10;99.90
63966;DHT22;50151;52.030;5.350;2023-06-22T15:33:00;22.20;99.90
63966;DHT22;50151;52.030;5.350;2023-06-22T15:35:27;22.10;99.90
63966;DHT22;50151;52.030;5.350;2023-06-22T15:37:54;22.20;99.90
63966;DHT22;50151;52.030;5.350;2023-06-22T15:40:21;22.10;99.90
63966;DHT22;50151;52.030;5.350;2023-06-22T15:42:51;22.00;99.90
63966;DHT22;50151;52.030;5.350;2023-06-22T15:45:19;22.00;99.90